Time;durP1;ratioP1;P1;durP2;ratioP2;P2;SDS_P1;SDS_P2;PMS_P1;PMS_P2;Temp;Humidity;BMP_temperature;BMP_pressure;BME280_temperature;BME280_humidity;BME280_pressure;Samples;Min_cycle;Max_cycle;Signal;HPM_P1;HPM_P2
2022/07/14 00:01:58;;;;;;;6.70;1.20;;;14.80;99.90;;;;;;5047032;28;20067;-68
2022/07/14 00:04:24;;;;;;;6.05;1.55;;;14.80;99.90;;;;;;5035627;28;20079;-68
2022/07/14 00:06:50;;;;;;;4.10;1.10;;;14.80;99.90;;;;;;5040510;28;20096;-68
2022/07/14 00:09:15;;;;;;;7.53;1.65;;;14.80;99.90;;;;;;5034812;28;20075;-68
2022/07/14 00:11:41;;;;;;;6.93;1.50;;;14.80;99.90;;;;;;5034149;28;20497;-68
2022/07/14 00:14:06;;;;;;;5.57;1.40;;;14.80;99.90;;;;;;5035792;28;20044;-68
2022/07/14 00:16:32;;;;;;;5.00;1.55;;;14.80;99.90;;;;;;5036857;28;20072;-67
2022/07/14 00:18:57;;;;;;;5.43;1.70;;;14.80;99.90;;;;;;5034497;28;20033;-67
2022/07/14 00:21:23;;;;;;;5.57;1.63;;;14.80;99.90;;;;;;5035579;28;20048;-68
2022/07/14 00:23:48;;;;;;;5.35;1.60;;;14.70;99.90;;;;;;5018984;28;20041;-68
2022/07/14 00:26:14;;;;;;;5.82;1.50;;;14.60;99.90;;;;;;5035275;28;20178;-68
2022/07/14 00:28:40;;;;;;;5.47;1.63;;;14.60;99.90;;;;;;5033555;28;20037;-69
2022/07/14 00:31:10;;;;;;;7.10;2.08;;;14.60;99.90;;;;;;5032115;28;20045;-68
2022/07/14 00:33:38;;;;;;;6.15;1.55;;;14.60;99.90;;;;;;5034985;28;20036;-68
2022/07/14 00:36:04;;;;;;;4.95;1.00;;;14.60;99.90;;;;;;5035464;28;20037;-67
2022/07/14 00:38:29;;;;;;;3.63;1.00;;;14.60;99.90;;;;;;5018394;28;20154;-68
2022/07/14 00:40:55;;;;;;;4.00;1.15;;;14.50;99.90;;;;;;5035278;28;20055;-68
2022/07/14 00:43:21;;;;;;;4.70;1.30;;;14.40;99.90;;;;;;5035287;28;20061;-68
2022/07/14 00:45:48;;;;;;;3.22;0.93;;;14.30;99.90;;;;;;5030701;28;20094;-68
2022/07/14 00:48:14;;;;;;;3.17;0.73;;;14.30;99.90;;;;;;5033472;28;20037;-67
2022/07/14 00:50:44;;;;;;;7.13;2.33;;;14.20;99.90;;;;;;5018486;28;20485;-68
2022/07/14 00:53:10;;;;;;;9.07;1.90;;;14.00;99.90;;;;;;5034912;28;20041;-68
2022/07/14 00:55:38;;;;;;;9.85;2.22;;;13.90;99.90;;;;;;5017921;28;20550;-68
2022/07/14 00:58:04;;;;;;;7.97;2.10;;;13.80;99.90;;;;;;5017156;28;20116;-67
2022/07/14 01:00:30;;;;;;;9.93;2.30;;;13.70;99.90;;;;;;5033987;28;20612;-68
2022/07/14 01:02:56;;;;;;;7.82;2.60;;;13.60;99.90;;;;;;5034203;28;20128;-68
2022/07/14 01:05:22;;;;;;;5.20;1.25;;;13.60;99.90;;;;;;5035033;28;20088;-68
2022/07/14 01:07:48;;;;;;;4.18;1.10;;;13.70;99.90;;;;;;5034837;28;20041;-68
2022/07/14 01:10:14;;;;;;;3.17;0.88;;;13.80;99.90;;;;;;5050847;28;20040;-68
2022/07/14 01:12:50;;;;;;;3.15;0.80;;;13.80;99.90;;;;;;5035004;28;20124;-67
2022/07/14 01:15:19;;;;;;;3.22;0.90;;;13.90;99.90;;;;;;5041036;28;20080;-67
2022/07/14 01:17:47;;;;;;;2.42;0.90;;;14.00;99.90;;;;;;5027340;28;20037;-68
2022/07/14 01:20:16;;;;;;;4.05;0.68;;;14.00;99.90;;;;;;5018556;28;20068;-68
2022/07/14 01:22:43;;;;;;;4.25;0.93;;;13.90;99.90;;;;;;5037277;28;20087;-67
2022/07/14 01:25:09;;;;;;;4.28;1.33;;;13.90;99.90;;;;;;5037918;28;20045;-68
2022/07/14 01:27:36;;;;;;;4.47;1.40;;;13.80;99.90;;;;;;5021186;28;20128;-68
2022/07/14 01:30:03;;;;;;;2.78;0.80;;;13.70;99.90;;;;;;5022362;28;20037;-68
2022/07/14 01:32:28;;;;;;;3.80;0.80;;;13.80;99.90;;;;;;5022108;28;20515;-68
2022/07/14 01:34:54;;;;;;;4.35;1.00;;;13.80;99.90;;;;;;5021260;28;20127;-68
2022/07/14 01:37:21;;;;;;;2.97;0.90;;;13.80;99.90;;;;;;5038517;28;20045;-68
2022/07/14 01:39:47;;;;;;;2.95;1.10;;;13.80;99.90;;;;;;5037625;28;20076;-68
2022/07/14 01:42:12;;;;;;;3.55;1.02;;;13.80;99.90;;;;;;5038633;28;20083;-68
2022/07/14 01:44:39;;;;;;;6.20;1.63;;;13.70;99.90;;;;;;5037513;28;20037;-68
2022/07/14 01:47:04;;;;;;;5.90;1.50;;;13.50;99.90;;;;;;5020920;28;20170;-68
2022/07/14 01:49:30;;;;;;;5.00;1.70;;;13.40;99.90;;;;;;5037062;28;20128;-68
2022/07/14 01:51:55;;;;;;;4.90;1.20;;;13.40;99.90;;;;;;5038339;28;20505;-67
2022/07/14 01:54:21;;;;;;;1.92;0.70;;;13.40;99.90;;;;;;5021298;28;20140;-68
2022/07/14 01:56:47;;;;;;;3.88;1.10;;;13.50;99.90;;;;;;5020188;28;20033;-68
2022/07/14 01:59:12;;;;;;;3.53;1.08;;;13.50;99.90;;;;;;5037918;28;20048;-68
2022/07/14 02:01:41;;;;;;;1.92;0.95;;;13.50;99.90;;;;;;5038368;28;20045;-69
2022/07/14 02:04:12;;;;;;;2.83;1.08;;;13.50;99.90;;;;;;5020941;28;20044;-68
2022/07/14 02:06:43;;;;;;;3.88;0.95;;;13.60;99.90;;;;;;5021454;28;20405;-68
2022/07/14 02:09:09;;;;;;;2.50;0.90;;;13.60;99.90;;;;;;5037401;28;20079;-68
2022/07/14 02:14:19;;;;;;;5.95;1.70;;;13.40;99.90;;;;;;5037133;28;20041;-67
2022/07/14 02:16:45;;;;;;;4.47;1.23;;;13.30;99.90;;;;;;5035864;28;20551;-68
2022/07/14 02:19:10;;;;;;;2.22;1.10;;;13.20;99.90;;;;;;5037817;28;20448;-68
2022/07/14 02:21:39;;;;;;;1.25;0.93;;;13.10;99.90;;;;;;5021317;28;20052;-68
2022/07/14 02:24:05;;;;;;;6.07;1.00;;;13.20;99.90;;;;;;5020441;28;20033;-68
2022/07/14 02:26:30;;;;;;;1.60;1.17;;;13.20;99.90;;;;;;5037463;28;20048;-68
2022/07/14 02:28:56;;;;;;;4.88;0.90;;;13.20;99.90;;;;;;5037181;28;20478;-68
2022/07/14 02:31:21;;;;;;;2.78;0.90;;;13.30;99.90;;;;;;5037423;28;20068;-68
2022/07/14 02:33:47;;;;;;;4.25;1.00;;;13.20;99.90;;;;;;5018999;28;20036;-67
2022/07/14 02:36:12;;;;;;;3.85;1.20;;;13.10;99.90;;;;;;5020577;28;20053;-67
2022/07/14 02:38:38;;;;;;;2.58;1.00;;;12.90;99.90;;;;;;5020012;28;20040;-67
2022/07/14 02:41:04;;;;;;;7.50;1.30;;;12.80;99.90;;;;;;5037640;28;20076;-68
2022/07/14 02:43:31;;;;;;;3.35;1.52;;;12.80;99.90;;;;;;5036583;28;20406;-67
2022/07/14 02:45:58;;;;;;;2.50;1.08;;;12.80;99.90;;;;;;5019761;28;20045;-67
2022/07/14 02:48:24;;;;;;;1.08;0.70;;;12.70;99.90;;;;;;5020794;28;20036;-67
2022/07/14 02:50:49;;;;;;;1.08;0.80;;;12.80;99.90;;;;;;5053883;28;20507;-68
2022/07/14 02:53:15;;;;;;;2.42;1.00;;;12.80;99.90;;;;;;5050661;28;20041;-68
2022/07/14 02:55:40;;;;;;;2.30;1.00;;;12.80;99.90;;;;;;5020819;28;20029;-68
2022/07/14 02:58:06;;;;;;;2.92;1.10;;;12.70;99.90;;;;;;5037314;28;20559;-67
2022/07/14 03:00:32;;;;;;;2.97;1.10;;;12.50;99.90;;;;;;5018460;28;20033;-68
2022/07/14 03:02:59;;;;;;;2.72;1.10;;;12.40;99.90;;;;;;5036410;28;20407;-67
2022/07/14 03:05:25;;;;;;;2.28;0.90;;;12.50;99.90;;;;;;5015791;28;20197;-67
2022/07/14 03:07:51;;;;;;;4.85;0.90;;;12.50;99.90;;;;;;5035134;28;20442;-68
2022/07/14 03:10:17;;;;;;;0.80;0.70;;;12.50;99.90;;;;;;5014421;28;20040;-68
2022/07/14 03:12:42;;;;;;;1.17;0.70;;;12.60;99.90;;;;;;5049554;28;20040;-68
2022/07/14 03:15:08;;;;;;;1.05;0.80;;;12.60;99.90;;;;;;5036719;28;20048;-68
2022/07/14 03:17:34;;;;;;;3.70;0.80;;;12.60;99.90;;;;;;5034527;28;20048;-68
2022/07/14 03:20:00;;;;;;;2.53;0.80;;;12.50;99.90;;;;;;5036500;28;20443;-68
2022/07/14 03:22:26;;;;;;;1.30;0.77;;;12.40;99.90;;;;;;5033504;28;20072;-68
2022/07/14 03:24:52;;;;;;;2.47;1.10;;;12.30;99.90;;;;;;5035653;28;20072;-68
2022/07/14 03:27:17;;;;;;;1.27;0.75;;;12.30;99.90;;;;;;5033675;28;20045;-67
2022/07/14 03:29:43;;;;;;;0.93;0.80;;;12.30;99.90;;;;;;4999216;28;20041;-68
2022/07/14 03:32:09;;;;;;;1.23;0.70;;;12.30;99.90;;;;;;5032989;28;20057;-68
2022/07/14 03:34:34;;;;;;;1.77;0.60;;;12.40;99.90;;;;;;5016170;28;20073;-68
2022/07/14 03:37:00;;;;;;;2.60;0.75;;;12.30;99.90;;;;;;5035812;28;20102;-68
2022/07/14 03:39:26;;;;;;;2.05;0.70;;;12.40;99.90;;;;;;5017057;28;20401;-68
2022/07/14 03:41:52;;;;;;;0.82;0.68;;;12.40;99.90;;;;;;5033200;28;20116;-68
2022/07/14 03:44:17;;;;;;;1.50;0.52;;;12.40;99.90;;;;;;5018368;28;20125;-68
2022/07/14 03:46:43;;;;;;;0.90;0.60;;;12.40;99.90;;;;;;5042100;28;20425;-68
2022/07/14 03:49:09;;;;;;;1.98;0.73;;;12.30;99.90;;;;;;5019614;28;20044;-68
2022/07/14 03:51:39;;;;;;;2.35;0.80;;;12.30;99.90;;;;;;5017217;28;20047;-68
2022/07/14 03:54:05;;;;;;;2.97;1.00;;;12.10;99.90;;;;;;5017383;28;20040;-68
2022/07/14 03:56:31;;;;;;;2.47;1.00;;;12.00;99.90;;;;;;5018926;28;20224;-68
2022/07/14 03:58:57;;;;;;;4.20;1.25;;;12.00;99.90;;;;;;5036027;28;20086;-68
2022/07/14 04:01:22;;;;;;;2.63;1.13;;;11.90;99.90;;;;;;5028920;28;20033;-67
2022/07/14 04:03:48;;;;;;;3.22;1.30;;;11.80;99.90;;;;;;5032392;28;20029;-67
2022/07/14 04:06:13;;;;;;;2.72;1.10;;;11.80;99.90;;;;;;5023595;28;20090;-68
2022/07/14 04:08:40;;;;;;;2.70;0.90;;;11.90;99.90;;;;;;5035735;28;20041;-67
2022/07/14 04:11:06;;;;;;;2.80;0.80;;;11.90;99.90;;;;;;5034636;28;20070;-68
2022/07/14 04:13:32;;;;;;;3.53;1.05;;;11.90;99.90;;;;;;5033975;28;20041;-68
2022/07/14 04:15:58;;;;;;;3.17;0.93;;;12.00;99.90;;;;;;5034819;28;20076;-68
2022/07/14 04:18:24;;;;;;;2.55;0.90;;;12.10;99.90;;;;;;5034477;28;20084;-68
2022/07/14 04:20:50;;;;;;;2.20;0.70;;;12.10;99.90;;;;;;5035068;28;20032;-68
2022/07/14 04:23:16;;;;;;;2.13;0.88;;;12.20;99.90;;;;;;5017501;28;20114;-68
2022/07/14 04:25:42;;;;;;;2.95;0.80;;;12.30;99.90;;;;;;5034654;28;20048;-68
2022/07/14 04:28:07;;;;;;;3.60;0.80;;;12.30;99.90;;;;;;5033600;28;20049;-68
2022/07/14 04:30:33;;;;;;;3.70;1.00;;;12.30;99.90;;;;;;5035207;28;20037;-68
2022/07/14 04:32:58;;;;;;;3.70;1.00;;;12.30;99.90;;;;;;5033926;28;20051;-68
2022/07/14 04:35:24;;;;;;;3.70;1.20;;;12.30;99.90;;;;;;5037818;28;20473;-68
2022/07/14 04:37:49;;;;;;;5.03;1.00;;;12.40;99.90;;;;;;5033913;28;20041;-68
2022/07/14 04:40:16;;;;;;;6.18;1.15;;;12.40;99.90;;;;;;5035068;28;20488;-68
2022/07/14 04:42:41;;;;;;;3.15;1.15;;;12.50;99.90;;;;;;5032232;28;20056;-67
2022/07/14 04:45:07;;;;;;;2.20;1.00;;;12.50;99.90;;;;;;5033271;28;20037;-68
2022/07/14 04:47:33;;;;;;;4.30;1.10;;;12.50;99.90;;;;;;5034527;28;20067;-67
2022/07/14 04:52:48;;;;;;;3.00;1.10;;;12.60;99.90;;;;;;5049530;28;20037;-68
2022/07/14 04:55:15;;;;;;;3.38;1.20;;;12.50;99.90;;;;;;5032324;28;20070;-68
2022/07/14 04:57:40;;;;;;;4.25;1.30;;;12.40;99.90;;;;;;5036072;28;20051;-67
2022/07/14 05:00:07;;;;;;;4.30;1.45;;;12.50;99.90;;;;;;5038464;28;20040;-68
2022/07/14 05:02:32;;;;;;;3.95;1.60;;;12.50;99.90;;;;;;5038870;28;20382;-67
2022/07/14 05:04:59;;;;;;;4.97;1.70;;;12.50;99.90;;;;;;5036220;28;20043;-68
2022/07/14 05:07:24;;;;;;;5.20;1.60;;;12.60;99.90;;;;;;5032534;28;20037;-68
2022/07/14 05:09:50;;;;;;;6.82;2.03;;;12.60;99.90;;;;;;5037900;28;20033;-68
2022/07/14 05:12:17;;;;;;;8.50;2.65;;;12.70;99.90;;;;;;5020638;28;20029;-67
2022/07/14 05:14:43;;;;;;;6.88;2.63;;;12.80;99.90;;;;;;5037186;28;20037;-68
2022/07/14 05:17:09;;;;;;;8.88;3.08;;;12.80;99.90;;;;;;5008585;28;20090;-68
2022/07/14 05:19:34;;;;;;;9.77;3.13;;;12.90;99.90;;;;;;5020404;28;20037;-67
2022/07/14 05:22:00;;;;;;;9.15;3.67;;;12.90;99.90;;;;;;5037211;28;20041;-67
2022/07/14 05:24:26;;;;;;;7.47;3.28;;;12.90;99.90;;;;;;5018591;28;20116;-67
2022/07/14 05:26:51;;;;;;;10.95;3.47;;;13.00;99.90;;;;;;5031076;28;20085;-67
2022/07/14 05:29:17;;;;;;;9.00;3.30;;;13.10;99.90;;;;;;5028644;28;20044;-67
2022/07/14 05:31:43;;;;;;;6.97;3.13;;;13.20;99.90;;;;;;5033689;28;20045;-67
2022/07/14 05:34:08;;;;;;;9.05;3.25;;;13.30;99.90;;;;;;5035547;28;20037;-68
2022/07/14 05:36:35;;;;;;;9.38;3.72;;;13.30;99.90;;;;;;5019712;28;20135;-67
2022/07/14 05:39:01;;;;;;;9.52;3.50;;;13.50;99.90;;;;;;5029332;28;20049;-67
2022/07/14 05:41:27;;;;;;;11.65;3.30;;;13.60;99.90;;;;;;5034854;28;20041;-67
2022/07/14 05:43:53;;;;;;;8.07;3.58;;;13.80;99.90;;;;;;5022284;28;20047;-67
2022/07/14 05:46:18;;;;;;;9.30;3.28;;;13.90;99.90;;;;;;5023495;28;20144;-68
2022/07/14 05:48:44;;;;;;;10.95;3.60;;;13.90;99.90;;;;;;5038571;28;20044;-68
2022/07/14 05:51:15;;;;;;;9.77;3.25;;;14.00;99.90;;;;;;5020000;28;20041;-67
2022/07/14 05:53:42;;;;;;;7.32;3.13;;;14.10;99.90;;;;;;5032583;28;20044;-67
2022/07/14 05:56:10;;;;;;;8.90;2.70;;;14.20;99.90;;;;;;5033647;28;20045;-68
2022/07/14 05:58:37;;;;;;;10.10;2.83;;;14.40;99.90;;;;;;5023297;28;20045;-68
2022/07/14 06:01:03;;;;;;;8.35;2.63;;;14.50;99.90;;;;;;5020760;28;20078;-67
2022/07/14 06:03:30;;;;;;;8.85;2.63;;;14.60;99.90;;;;;;5014411;28;20473;-68
2022/07/14 06:05:58;;;;;;;11.52;2.60;;;14.70;99.90;;;;;;5027108;28;20055;-68
2022/07/14 06:08:24;;;;;;;8.70;2.33;;;14.80;99.90;;;;;;5036857;28;20043;-68
2022/07/14 06:10:49;;;;;;;8.43;2.50;;;15.00;99.90;;;;;;5034197;28;20115;-68
2022/07/14 06:13:15;;;;;;;7.60;2.13;;;15.20;99.90;;;;;;5036636;28;20037;-68
2022/07/14 06:15:41;;;;;;;11.30;2.17;;;15.30;99.90;;;;;;5032734;28;20067;-67
2022/07/14 06:18:09;;;;;;;10.05;2.25;;;15.50;99.90;;;;;;5031113;28;20132;-67
2022/07/14 06:20:34;;;;;;;8.88;1.80;;;15.60;99.90;;;;;;5035935;28;20037;-68
2022/07/14 06:23:00;;;;;;;8.32;2.03;;;15.80;99.90;;;;;;5036819;28;20489;-68
2022/07/14 06:25:26;;;;;;;7.28;1.90;;;15.90;99.90;;;;;;5035180;28;20409;-67
2022/07/14 06:27:51;;;;;;;8.27;1.60;;;16.00;99.90;;;;;;5033134;28;20040;-68
2022/07/14 06:30:17;;;;;;;8.93;1.90;;;16.20;99.90;;;;;;5016805;28;20453;-72
2022/07/14 06:32:42;;;;;;;8.23;1.40;;;16.30;99.90;;;;;;5017745;28;20077;-67
2022/07/14 06:35:09;;;;;;;7.18;1.45;;;16.40;99.90;;;;;;5043127;28;20438;-67
2022/07/14 06:37:35;;;;;;;4.80;1.23;;;16.50;99.90;;;;;;5035416;28;20089;-67
2022/07/14 06:40:06;;;;;;;5.45;1.50;;;16.60;99.90;;;;;;5033126;28;20456;-67
2022/07/14 06:42:34;;;;;;;5.22;1.33;;;16.70;99.90;;;;;;5034668;28;20056;-67
2022/07/14 06:45:01;;;;;;;7.07;1.25;;;16.80;99.90;;;;;;5027741;28;20075;-67
2022/07/14 06:47:29;;;;;;;5.35;1.10;;;16.90;99.90;;;;;;5033841;28;20071;-67
2022/07/14 06:49:55;;;;;;;6.80;1.08;;;16.90;99.90;;;;;;5017624;28;21436;-67
2022/07/14 06:52:21;;;;;;;7.50;1.60;;;17.00;99.90;;;;;;5020420;28;20129;-67
2022/07/14 06:54:46;;;;;;;6.05;1.27;;;17.00;99.90;;;;;;5030442;28;20037;-67
2022/07/14 06:57:12;;;;;;;7.18;1.20;;;17.10;99.90;;;;;;5034180;28;20044;-67
2022/07/14 06:59:37;;;;;;;5.15;1.20;;;17.20;99.90;;;;;;5019671;28;20445;-67
2022/07/14 07:02:03;;;;;;;5.00;1.00;;;17.20;99.90;;;;;;5035630;28;20052;-67
2022/07/14 07:04:28;;;;;;;9.40;1.27;;;17.20;99.90;;;;;;5035571;28;20041;-67
2022/07/14 07:06:54;;;;;;;5.55;1.45;;;17.30;99.90;;;;;;5016675;28;20098;-67
2022/07/14 07:09:20;;;;;;;4.88;1.23;;;17.40;99.90;;;;;;5030486;28;20051;-67
2022/07/14 07:11:49;;;;;;;6.65;1.45;;;17.30;99.90;;;;;;5027485;28;20126;-67
2022/07/14 07:14:16;;;;;;;5.35;1.20;;;17.30;99.90;;;;;;5018552;28;20074;-68
2022/07/14 07:16:44;;;;;;;6.78;1.10;;;17.30;99.90;;;;;;5031602;28;20043;-67
2022/07/14 07:19:10;;;;;;;6.50;1.00;;;17.30;99.90;;;;;;5033775;28;20044;-68
2022/07/14 07:21:36;;;;;;;6.47;1.25;;;17.10;99.90;;;;;;5036486;28;20033;-68
2022/07/14 07:24:01;;;;;;;3.97;1.17;;;17.10;99.90;;;;;;5036800;28;20091;-67
2022/07/14 07:26:32;;;;;;;6.15;1.35;;;17.10;99.90;;;;;;5036484;28;20543;-67
2022/07/14 07:28:58;;;;;;;6.40;1.23;;;17.00;99.90;;;;;;5011858;28;20037;-68
2022/07/14 07:31:25;;;;;;;8.25;1.40;;;16.90;99.90;;;;;;5029444;28;20064;-68
2022/07/14 07:33:51;;;;;;;7.40;1.52;;;16.90;99.90;;;;;;5035591;28;20041;-67
2022/07/14 07:36:16;;;;;;;5.95;1.08;;;17.00;99.90;;;;;;5020148;28;20091;-67
2022/07/14 07:38:42;;;;;;;5.13;0.95;;;17.00;99.90;;;;;;5036368;28;20084;-68
2022/07/14 07:41:08;;;;;;;7.53;1.00;;;17.00;99.90;;;;;;5019153;28;20033;-68
2022/07/14 07:43:34;;;;;;;6.00;1.02;;;17.10;99.90;;;;;;5036264;28;20037;-67
2022/07/14 07:46:00;;;;;;;3.65;1.10;;;17.30;99.90;;;;;;5035878;28;20086;-68
2022/07/14 07:48:25;;;;;;;7.68;1.50;;;17.50;99.90;;;;;;5035575;28;20033;-67
2022/07/14 07:50:51;;;;;;;6.38;1.20;;;17.60;99.90;;;;;;5030707;28;20190;-67
2022/07/14 07:53:16;;;;;;;5.65;1.17;;;17.80;99.90;;;;;;5026542;28;20037;-67
2022/07/14 07:55:42;;;;;;;3.17;0.90;;;17.90;99.90;;;;;;5015865;28;20048;-67
2022/07/14 07:58:08;;;;;;;6.30;1.25;;;17.90;99.90;;;;;;5015493;28;20044;-68
2022/07/14 08:00:34;;;;;;;4.70;1.00;;;17.90;99.90;;;;;;5016065;28;20045;-67
2022/07/14 08:03:01;;;;;;;5.18;0.98;;;18.10;99.90;;;;;;5016043;28;20553;-67
2022/07/14 08:05:29;;;;;;;8.98;1.50;;;18.20;99.90;;;;;;5015570;28;20041;-67
2022/07/14 08:07:55;;;;;;;3.80;0.90;;;18.40;99.90;;;;;;5015933;28;20044;-67
2022/07/14 08:10:21;;;;;;;5.43;1.02;;;18.50;99.90;;;;;;5015598;28;20222;-67
2022/07/14 08:12:47;;;;;;;2.50;0.70;;;18.60;99.90;;;;;;5015560;28;20037;-67
2022/07/14 08:15:14;;;;;;;4.43;0.75;;;18.70;99.90;;;;;;5015459;28;20091;-67
2022/07/14 08:17:39;;;;;;;4.38;1.20;;;18.70;99.90;;;;;;5015892;28;20052;-68
2022/07/14 08:20:08;;;;;;;5.47;0.80;;;18.60;99.90;;;;;;5015510;28;20045;-67
2022/07/14 08:22:35;;;;;;;5.82;1.10;;;18.60;99.90;;;;;;5031852;28;20040;-68
2022/07/14 08:25:01;;;;;;;5.50;1.02;;;18.60;99.90;;;;;;5015801;28;20095;-68
2022/07/14 08:27:27;;;;;;;4.97;0.98;;;18.60;99.90;;;;;;5015413;28;20084;-68
2022/07/14 08:29:53;;;;;;;6.72;1.02;;;18.60;99.90;;;;;;5015470;28;20045;-67
2022/07/14 08:32:37;;;;;;;3.60;0.63;;;18.60;99.90;;;;;;5014667;28;20410;-68
2022/07/14 08:35:05;;;;;;;3.65;0.80;;;18.70;99.90;;;;;;5015188;28;20049;-67
2022/07/14 08:37:30;;;;;;;5.97;0.98;;;18.70;99.90;;;;;;5015825;28;20413;-67
2022/07/14 08:39:56;;;;;;;6.10;0.85;;;18.80;99.90;;;;;;5015128;28;20041;-67
2022/07/14 08:42:22;;;;;;;2.75;0.77;;;18.80;99.90;;;;;;5014919;28;20052;-68
2022/07/14 08:44:48;;;;;;;2.38;0.90;;;18.80;99.90;;;;;;5031993;28;20114;-68
2022/07/14 08:47:14;;;;;;;6.05;1.27;;;18.90;99.90;;;;;;5014702;28;20037;-67
2022/07/14 08:49:42;;;;;;;4.30;1.10;;;18.90;99.90;;;;;;5031475;28;20045;-68
2022/07/14 08:52:07;;;;;;;5.03;1.10;;;18.90;99.90;;;;;;5023993;28;20538;-68
2022/07/14 08:54:36;;;;;;;5.03;1.30;;;18.90;99.90;;;;;;5032113;28;20141;-67
2022/07/14 08:57:02;;;;;;;4.97;1.00;;;18.90;99.90;;;;;;5015480;28;20091;-68
2022/07/14 08:59:28;;;;;;;3.30;0.70;;;18.80;99.90;;;;;;4998941;28;20087;-67
2022/07/14 09:01:56;;;;;;;2.70;0.60;;;18.80;99.90;;;;;;5015542;28;20045;-68
2022/07/14 09:04:21;;;;;;;4.38;0.90;;;18.80;99.90;;;;;;4999230;28;20068;-67
2022/07/14 09:06:52;;;;;;;4.70;0.98;;;18.90;99.90;;;;;;5015206;28;20485;-68
2022/07/14 09:09:24;;;;;;;4.00;1.03;;;19.00;99.90;;;;;;5034284;28;20033;-68
2022/07/14 09:11:51;;;;;;;;;;;19.00;99.90;;;;;;5019061;28;20083;-67
2022/07/14 09:14:17;;;;;;;3.33;0.70;;;19.00;99.90;;;;;;5035206;28;19982;-67
2022/07/14 09:16:43;;;;;;;6.60;1.20;;;19.00;99.90;;;;;;5034969;28;20066;-67
2022/07/14 09:19:13;;;;;;;5.43;1.00;;;19.10;99.90;;;;;;5018787;28;20052;-67
2022/07/14 09:21:42;;;;;;;5.53;0.98;;;19.10;99.90;;;;;;5034949;28;20075;-68
2022/07/14 09:24:10;;;;;;;6.25;1.10;;;19.00;99.90;;;;;;5016422;28;20045;-67
2022/07/14 09:26:56;;;;;;;5.60;1.17;;;18.90;99.90;;;;;;5021719;28;20075;-68
2022/07/14 09:29:29;;;;;;;6.32;0.90;;;18.90;99.90;;;;;;5028146;28;20029;-67
2022/07/14 09:31:54;;;;;;;2.22;0.70;;;18.90;99.90;;;;;;5025622;28;20144;-67
2022/07/14 09:34:29;;;;;;;5.13;0.90;;;19.00;99.90;;;;;;5034173;28;20079;-67
2022/07/14 09:37:11;;;;;;;5.03;0.80;;;19.20;99.90;;;;;;5034876;28;20087;-67
2022/07/14 09:39:53;;;;;;;4.05;0.85;;;19.40;99.90;;;;;;5016619;28;20394;-68
2022/07/14 09:42:18;;;;;;;2.50;0.85;;;19.50;99.90;;;;;;5034782;28;20053;-67
2022/07/14 09:44:44;;;;;;;5.28;1.00;;;19.60;99.90;;;;;;5019959;28;20413;-67
2022/07/14 09:47:10;;;;;;;2.05;0.60;;;19.60;99.90;;;;;;5018690;28;20525;-67
2022/07/14 09:49:37;;;;;;;5.43;1.20;;;19.70;99.90;;;;;;5051954;28;20489;-67
2022/07/14 09:52:04;;;;;;;6.45;1.13;;;19.70;99.90;;;;;;5011181;28;20037;-67
2022/07/14 09:54:49;;;;;;;4.45;0.82;;;19.80;99.90;;;;;;5023864;28;20055;-67
2022/07/14 09:57:15;;;;;;;4.93;1.00;;;19.80;99.90;;;;;;5019927;28;20063;-67
2022/07/14 09:59:54;;;;;;;2.38;0.70;;;19.90;99.90;;;;;;5032613;28;20131;-67
2022/07/14 10:02:29;;;;;;;4.57;0.77;;;19.90;99.90;;;;;;5018547;28;20029;-67
2022/07/14 10:05:05;;;;;;;4.82;0.80;;;19.90;99.90;;;;;;5035448;28;20070;-67
2022/07/14 10:07:36;;;;;;;4.60;1.00;;;19.90;99.90;;;;;;5025660;28;20059;-67
2022/07/14 10:10:07;;;;;;;4.53;1.17;;;19.90;99.90;;;;;;5029129;28;20033;-67
2022/07/14 10:12:33;;;;;;;5.07;0.82;;;19.90;99.90;;;;;;5036531;28;20117;-67
2022/07/14 10:15:02;;;;;;;2.40;0.77;;;19.80;99.90;;;;;;5030481;28;20183;-67
2022/07/14 10:17:37;;;;;;;4.05;0.95;;;19.90;99.90;;;;;;5008031;28;20065;-67
2022/07/14 10:20:11;;;;;;;4.75;1.00;;;20.00;99.90;;;;;;5038035;28;20479;-67
2022/07/14 10:22:38;;;;;;;3.47;0.75;;;19.90;99.90;;;;;;5019076;28;20037;-67
2022/07/14 10:25:06;;;;;;;4.40;0.90;;;20.00;99.90;;;;;;5034693;28;20451;-67
2022/07/14 10:27:32;;;;;;;4.20;0.82;;;20.00;99.90;;;;;;5020793;28;20041;-67
2022/07/14 10:29:58;;;;;;;2.20;0.82;;;20.00;99.90;;;;;;5033627;28;20447;-67
2022/07/14 10:32:35;;;;;;;3.67;0.90;;;19.90;99.90;;;;;;5036315;28;20049;-67
2022/07/14 10:35:35;;;;;;;4.30;0.98;;;20.10;99.90;;;;;;5041814;28;20135;-67
2022/07/14 10:38:12;;;;;;;3.03;0.90;;;20.20;99.90;;;;;;5015147;28;20493;-68
2022/07/14 10:40:38;;;;;;;4.68;0.82;;;20.20;99.90;;;;;;5017659;28;20044;-67
2022/07/14 10:43:20;;;;;;;4.75;0.80;;;20.20;99.90;;;;;;5037543;28;20396;-67
2022/07/14 10:45:50;;;;;;;2.83;0.70;;;20.10;99.90;;;;;;5029424;28;20077;-68
2022/07/14 10:48:28;;;;;;;2.53;0.80;;;20.20;99.90;;;;;;5032750;28;20484;-68
2022/07/14 10:51:26;;;;;;;2.67;0.73;;;20.20;99.90;;;;;;5029323;28;20033;-67
2022/07/14 10:54:06;;;;;;;11.55;1.38;;;20.10;99.90;;;;;;5034716;28;20041;-68
2022/07/14 10:56:32;;;;;;;12.20;1.40;;;20.10;99.90;;;;;;5034835;28;20460;-68
2022/07/14 10:59:26;;;;;;;3.72;1.00;;;20.00;99.90;;;;;;5045277;28;20119;-68
2022/07/14 11:02:10;;;;;;;4.50;0.80;;;20.10;99.90;;;;;;5032733;28;20044;-68
2022/07/14 11:04:59;;;;;;;2.38;0.80;;;20.20;99.90;;;;;;5035000;28;20041;-68
2022/07/14 11:07:40;;;;;;;3.42;0.90;;;20.20;99.90;;;;;;5018297;28;20044;-67
2022/07/14 11:10:26;;;;;;;4.13;0.97;;;20.10;99.90;;;;;;5034223;28;20078;-67
2022/07/14 11:13:03;;;;;;;3.13;1.00;;;20.10;99.90;;;;;;4994802;28;20068;-67
2022/07/14 11:15:50;;;;;;;2.80;0.70;;;20.10;99.90;;;;;;5031240;28;20037;-67
2022/07/14 11:18:18;;;;;;;2.08;0.77;;;20.00;99.90;;;;;;5018745;28;20075;-67
2022/07/14 11:20:51;;;;;;;6.40;1.10;;;20.00;99.90;;;;;;5030583;28;20075;-67
2022/07/14 11:23:21;;;;;;;3.95;0.80;;;20.00;99.90;;;;;;5033668;28;20029;-68
2022/07/14 11:25:48;;;;;;;2.15;0.80;;;19.90;99.90;;;;;;5020241;28;20120;-67
2022/07/14 11:28:47;;;;;;;3.08;0.93;;;20.00;99.90;;;;;;5034900;28;20037;-69
2022/07/14 11:31:17;;;;;;;23.50;1.85;;;19.90;99.90;;;;;;5007058;28;20049;-70
2022/07/14 11:36:31;;;;;;;9.77;1.00;;;19.80;99.90;;;;;;5029176;28;20053;-71
2022/07/14 11:39:15;;;;;;;4.25;0.90;;;19.80;99.90;;;;;;5000852;28;20041;-71
2022/07/14 11:42:06;;;;;;;5.60;1.05;;;19.80;99.90;;;;;;5014012;28;20141;-71
2022/07/14 11:44:35;;;;;;;4.25;0.95;;;19.80;99.90;;;;;;5024043;28;20056;-70
2022/07/14 11:47:03;;;;;;;4.55;1.00;;;19.90;99.90;;;;;;5015136;28;20053;-70
2022/07/14 11:49:29;;;;;;;2.60;0.80;;;19.90;99.90;;;;;;5014403;28;20441;-69
2022/07/14 11:51:56;;;;;;;4.07;0.90;;;19.90;99.90;;;;;;4999897;28;20033;-69
2022/07/14 11:54:23;;;;;;;4.70;0.90;;;19.90;99.90;;;;;;5030505;28;20048;-69
2022/07/14 11:56:49;;;;;;;3.47;0.80;;;19.80;99.90;;;;;;5016556;28;20053;-69
2022/07/14 11:59:18;;;;;;;3.60;0.90;;;19.80;99.90;;;;;;5013636;28;20037;-69
2022/07/14 12:01:45;;;;;;;4.47;0.85;;;19.90;99.90;;;;;;5005655;28;20037;-69
2022/07/14 12:04:14;;;;;;;3.85;0.98;;;19.90;99.90;;;;;;5013811;28;20516;-69
2022/07/14 12:06:43;;;;;;;4.20;0.90;;;20.00;99.90;;;;;;5030652;28;20448;-69
2022/07/14 12:09:10;;;;;;;4.90;0.82;;;20.20;99.90;;;;;;5006856;28;20034;-69
2022/07/14 12:11:36;;;;;;;3.45;0.90;;;20.40;99.90;;;;;;5030471;28;20038;-69
2022/07/14 12:14:03;;;;;;;6.28;0.90;;;20.60;99.90;;;;;;5017012;28;20041;-69
2022/07/14 12:16:28;;;;;;;4.00;0.80;;;20.70;99.90;;;;;;5015032;28;20041;-69
2022/07/14 12:18:55;;;;;;;4.70;1.00;;;20.70;99.90;;;;;;5023325;28;20083;-69
2022/07/14 12:21:36;;;;;;;4.90;0.90;;;20.70;99.90;;;;;;5030051;28;20044;-69
2022/07/14 12:24:05;;;;;;;4.07;0.90;;;20.60;99.90;;;;;;5001437;28;20120;-69
2022/07/14 12:26:31;;;;;;;4.30;0.90;;;20.50;99.90;;;;;;5012889;28;20045;-69
2022/07/14 12:29:00;;;;;;;5.05;1.08;;;20.50;99.90;;;;;;5005929;28;20394;-69
2022/07/14 12:31:26;;;;;;;3.83;1.20;;;20.40;99.90;;;;;;5007035;28;20037;-69
2022/07/14 12:33:53;;;;;;;4.50;0.80;;;20.20;99.90;;;;;;5008037;28;20132;-69
2022/07/14 12:36:23;;;;;;;3.28;0.80;;;20.20;99.90;;;;;;5014714;28;20037;-69
2022/07/14 12:38:50;;;;;;;3.45;0.90;;;20.20;99.90;;;;;;5021621;28;20041;-69
2022/07/14 12:41:19;;;;;;;5.15;0.80;;;20.30;99.90;;;;;;5010673;28;20079;-69
2022/07/14 12:43:46;;;;;;;3.95;0.90;;;20.30;99.90;;;;;;5011390;28;20504;-69
2022/07/14 12:46:18;;;;;;;4.68;0.85;;;20.20;99.90;;;;;;5008383;28;20075;-69
2022/07/14 12:48:49;;;;;;;6.22;1.25;;;20.30;99.90;;;;;;5026459;28;20077;-69
2022/07/14 12:51:39;;;;;;;5.82;0.93;;;20.20;99.90;;;;;;5011329;28;20057;-69
2022/07/14 12:54:15;;;;;;;1.95;0.63;;;20.10;99.90;;;;;;5012383;28;20044;-70
2022/07/14 12:56:44;;;;;;;5.47;0.90;;;20.10;99.90;;;;;;5029176;28;20046;-69
2022/07/14 12:59:17;;;;;;;5.38;1.35;;;20.00;99.90;;;;;;5016792;28;20033;-69
2022/07/14 13:01:53;;;;;;;4.60;0.88;;;20.00;99.90;;;;;;4997435;28;20134;-69